Time;durP1;ratioP1;P1;durP2;ratioP2;P2;SDS_P1;SDS_P2;PMS_P1;PMS_P2;Temp;Humidity;BMP_temperature;BMP_pressure;BME280_temperature;BME280_humidity;BME280_pressure;Samples;Min_cycle;Max_cycle;Signal;HPM_P1;HPM_P2
2024/02/03 00:02:21;;;;;;;5.57;3.00;;;8.20;99.90;;;;;;4887821;29;20229;-45
2024/02/03 00:04:49;;;;;;;3.35;3.05;;;8.20;99.90;;;;;;4894330;29;20213;-45
2024/02/03 00:07:18;;;;;;;3.50;3.20;;;8.20;99.90;;;;;;4894690;29;20914;-45
2024/02/03 00:09:47;;;;;;;3.63;3.00;;;8.20;99.90;;;;;;4893669;29;20469;-45
2024/02/03 00:12:16;;;;;;;3.50;3.00;;;8.20;99.90;;;;;;5459856;23;20502;-47
2024/02/03 00:14:44;;;;;;;3.95;3.35;;;8.20;99.90;;;;;;4950592;29;20443;-47
2024/02/03 00:17:12;;;;;;;3.87;3.10;;;8.20;99.90;;;;;;4946152;28;20220;-46
2024/02/03 00:19:40;;;;;;;3.83;2.90;;;8.20;99.90;;;;;;4951742;29;20471;-47
2024/02/03 00:22:08;;;;;;;3.60;3.20;;;8.20;99.90;;;;;;4949817;28;20468;-47
2024/02/03 00:24:38;;;;;;;3.60;3.00;;;8.20;99.90;;;;;;4950461;29;20441;-46
2024/02/03 00:27:06;;;;;;;3.22;2.38;;;8.20;99.90;;;;;;4951200;28;20946;-46
2024/02/03 00:29:35;;;;;;;3.50;2.60;;;8.20;99.90;;;;;;4950035;29;20221;-45
2024/02/03 00:32:03;;;;;;;3.80;2.95;;;8.20;99.90;;;;;;4939924;28;20220;-44
2024/02/03 00:34:31;;;;;;;4.07;3.00;;;8.20;99.90;;;;;;4947791;29;20685;-45
2024/02/03 00:37:01;;;;;;;3.47;2.50;;;8.20;99.90;;;;;;4950767;28;20985;-45
2024/02/03 00:39:30;;;;;;;3.50;3.00;;;8.20;99.90;;;;;;4950878;29;20538;-45
2024/02/03 00:41:59;;;;;;;4.30;2.55;;;8.20;99.90;;;;;;4947773;29;20991;-45
2024/02/03 00:44:28;;;;;;;2.90;2.33;;;8.20;99.90;;;;;;4948138;29;20227;-45
2024/02/03 00:46:56;;;;;;;3.33;2.50;;;8.20;99.90;;;;;;4944243;28;20483;-46
2024/02/03 00:49:24;;;;;;;4.00;3.00;;;8.20;99.90;;;;;;4950982;29;20446;-45
2024/02/03 00:51:54;;;;;;;2.53;2.27;;;8.20;99.90;;;;;;4941927;29;20475;-44
2024/02/03 00:54:22;;;;;;;3.85;2.92;;;8.20;99.90;;;;;;4947021;29;20460;-45
2024/02/03 00:56:50;;;;;;;3.50;2.70;;;8.20;99.90;;;;;;4942140;28;20716;-45
2024/02/03 00:59:19;;;;;;;2.95;2.15;;;8.20;99.90;;;;;;4950955;28;20211;-45
2024/02/03 01:01:48;;;;;;;3.67;2.37;;;8.20;99.90;;;;;;4943155;28;20253;-45
2024/02/03 01:04:16;;;;;;;3.80;2.50;;;8.20;99.90;;;;;;4950475;28;20508;-46
2024/02/03 01:06:44;;;;;;;2.83;2.50;;;8.20;99.90;;;;;;4949645;28;20558;-45
2024/02/03 01:09:16;;;;;;;2.70;2.40;;;8.20;99.90;;;;;;4946915;29;20440;-45
2024/02/03 01:11:44;;;;;;;3.17;2.20;;;8.20;99.90;;;;;;4949731;28;20826;-46
2024/02/03 01:14:12;;;;;;;3.17;2.00;;;8.20;99.90;;;;;;4950072;29;20416;-45
2024/02/03 01:16:44;;;;;;;2.97;2.13;;;8.20;99.90;;;;;;4947208;28;20491;-45
2024/02/03 01:19:12;;;;;;;3.53;2.73;;;8.20;99.90;;;;;;4951114;29;20427;-47
2024/02/03 01:21:41;;;;;;;3.87;3.30;;;8.20;99.90;;;;;;4949669;28;20578;-47
2024/02/03 01:24:09;;;;;;;2.70;2.25;;;8.20;99.90;;;;;;4950073;29;20451;-47
2024/02/03 01:26:37;;;;;;;2.85;2.25;;;8.20;99.90;;;;;;4944970;28;20597;-48
2024/02/03 01:29:05;;;;;;;2.90;2.30;;;8.20;99.90;;;;;;4950796;28;20255;-46
2024/02/03 01:31:33;;;;;;;2.85;2.35;;;8.20;99.90;;;;;;4942331;28;20483;-45
2024/02/03 01:34:02;;;;;;;2.17;1.80;;;8.20;99.90;;;;;;4950925;29;20215;-45
2024/02/03 01:36:31;;;;;;;2.95;2.15;;;8.20;99.90;;;;;;4949784;28;20464;-45
2024/02/03 01:38:59;;;;;;;3.30;2.33;;;8.20;99.90;;;;;;4950884;29;20232;-47
2024/02/03 01:41:27;;;;;;;3.30;2.20;;;8.20;99.90;;;;;;4945516;28;20906;-47
2024/02/03 01:43:56;;;;;;;3.27;2.47;;;8.20;99.90;;;;;;4950201;29;20451;-45
2024/02/03 01:46:24;;;;;;;3.10;2.23;;;8.20;99.90;;;;;;4943276;28;20850;-47
2024/02/03 01:48:52;;;;;;;3.13;1.90;;;8.20;99.90;;;;;;4950027;29;20428;-47
2024/02/03 01:51:23;;;;;;;3.33;2.40;;;8.20;99.90;;;;;;4950148;28;20478;-47
2024/02/03 01:53:52;;;;;;;3.45;2.42;;;8.20;99.90;;;;;;4941037;29;20223;-45
2024/02/03 01:56:21;;;;;;;2.80;2.27;;;8.20;99.90;;;;;;4949444;28;20228;-47
2024/02/03 01:58:49;;;;;;;3.47;2.30;;;8.20;99.90;;;;;;4950942;29;20501;-47
2024/02/03 02:01:17;;;;;;;2.77;1.73;;;8.20;99.90;;;;;;4944309;28;21061;-47
2024/02/03 02:03:47;;;;;;;2.50;1.93;;;8.20;99.90;;;;;;4949761;29;20456;-47
2024/02/03 02:12:13;;;;;;;2.90;2.20;;;8.20;99.90;;;;;;5363522;23;20262;-47
2024/02/03 02:14:41;;;;;;;2.75;2.33;;;8.20;99.90;;;;;;4970793;28;20457;-46
2024/02/03 02:17:09;;;;;;;2.80;2.20;;;8.20;99.90;;;;;;4963411;28;20693;-46
2024/02/03 02:19:37;;;;;;;2.67;2.00;;;8.20;99.90;;;;;;4973093;28;20989;-46
2024/02/03 02:22:07;;;;;;;3.43;2.40;;;8.20;99.90;;;;;;4972111;28;20488;-47
2024/02/03 02:24:35;;;;;;;3.20;2.50;;;8.20;99.90;;;;;;4972184;28;20432;-48
2024/02/03 02:27:03;;;;;;;2.80;2.00;;;8.20;99.90;;;;;;4971372;28;20509;-47
2024/02/03 02:29:31;;;;;;;2.53;2.00;;;8.20;99.90;;;;;;4966124;28;20278;-45
2024/02/03 02:32:00;;;;;;;2.60;1.90;;;8.20;99.90;;;;;;4965985;28;21007;-45
2024/02/03 02:34:28;;;;;;;2.77;2.17;;;8.20;99.90;;;;;;4972976;28;20470;-45
2024/02/03 02:36:56;;;;;;;2.53;2.10;;;8.20;99.90;;;;;;4972537;28;20560;-46
2024/02/03 02:39:25;;;;;;;2.80;2.27;;;8.20;99.90;;;;;;4958129;28;20917;-49
2024/02/03 02:41:53;;;;;;;2.43;1.87;;;8.20;99.90;;;;;;4963349;28;20501;-49
2024/02/03 02:44:21;;;;;;;2.37;1.87;;;8.20;99.90;;;;;;4971166;28;20526;-47
2024/02/03 02:46:49;;;;;;;2.50;2.00;;;8.20;99.90;;;;;;4963909;28;20480;-47
2024/02/03 02:49:17;;;;;;;2.97;2.20;;;8.20;99.90;;;;;;4965408;28;20435;-47
2024/02/03 02:51:45;;;;;;;3.20;2.23;;;8.20;99.90;;;;;;4970429;28;20497;-47
2024/02/03 02:54:14;;;;;;;2.63;1.93;;;8.20;99.90;;;;;;4970478;28;20444;-47
2024/02/03 02:56:43;;;;;;;2.03;1.83;;;8.20;99.90;;;;;;4970673;28;20991;-45
2024/02/03 02:59:11;;;;;;;2.53;1.87;;;8.20;99.90;;;;;;4966633;28;20996;-47
2024/02/03 03:01:39;;;;;;;2.72;1.80;;;8.20;99.90;;;;;;4965030;28;20486;-47
2024/02/03 03:04:08;;;;;;;3.20;2.40;;;8.20;99.90;;;;;;4972690;28;20211;-47
2024/02/03 03:06:36;;;;;;;2.83;2.50;;;8.20;99.90;;;;;;4971589;28;20521;-45
2024/02/03 03:09:04;;;;;;;2.70;2.37;;;8.20;99.90;;;;;;4963445;28;20494;-47
2024/02/03 03:11:32;;;;;;;3.15;1.90;;;8.20;99.90;;;;;;4969368;28;20524;-46
2024/02/03 03:14:02;;;;;;;2.67;2.07;;;8.20;99.90;;;;;;4967111;28;20290;-47
2024/02/03 03:16:30;;;;;;;3.10;2.13;;;8.20;99.90;;;;;;4962479;28;20707;-46
2024/02/03 03:18:58;;;;;;;1.80;1.60;;;8.20;99.90;;;;;;4966605;28;20495;-46
2024/02/03 03:21:26;;;;;;;2.72;1.92;;;8.20;99.90;;;;;;4943642;28;20551;-46
2024/02/03 03:23:54;;;;;;;2.80;2.23;;;8.20;99.90;;;;;;4968526;28;20591;-45
2024/02/03 03:26:22;;;;;;;3.47;2.40;;;8.20;99.90;;;;;;4967231;28;20473;-45
2024/02/03 03:28:50;;;;;;;2.43;1.80;;;8.20;99.90;;;;;;4966321;28;20454;-46
2024/02/03 03:31:19;;;;;;;3.10;2.07;;;8.20;99.90;;;;;;4967285;28;21021;-46
2024/02/03 03:33:47;;;;;;;2.13;1.67;;;8.20;99.90;;;;;;4971143;28;20979;-46
2024/02/03 03:36:16;;;;;;;2.80;2.20;;;8.20;99.90;;;;;;4953729;28;20502;-46
2024/02/03 03:38:44;;;;;;;3.10;1.90;;;8.20;99.90;;;;;;4968573;28;20936;-46
2024/02/03 03:41:12;;;;;;;3.33;2.10;;;8.20;99.90;;;;;;4965729;28;20467;-46
2024/02/03 03:43:40;;;;;;;4.03;2.20;;;8.20;99.90;;;;;;4969334;28;20229;-46
2024/02/03 03:46:08;;;;;;;2.60;1.70;;;8.20;99.90;;;;;;4967239;28;20496;-45
2024/02/03 03:48:38;;;;;;;2.80;2.20;;;8.20;99.90;;;;;;4969292;28;20951;-46
2024/02/03 03:51:06;;;;;;;2.87;1.93;;;8.20;99.90;;;;;;4970630;28;20489;-46
2024/02/03 03:53:34;;;;;;;2.88;2.35;;;8.20;99.90;;;;;;4970762;28;20459;-47
2024/02/03 03:56:03;;;;;;;2.50;2.10;;;8.20;99.90;;;;;;4966541;28;20270;-46
2024/02/03 03:58:31;;;;;;;2.63;1.80;;;8.20;99.90;;;;;;4967578;28;20657;-45
2024/02/03 04:00:59;;;;;;;1.90;1.50;;;8.20;99.90;;;;;;4967466;28;20493;-45
2024/02/03 04:03:28;;;;;;;2.20;1.73;;;8.20;99.90;;;;;;4959250;28;20507;-46
2024/02/03 04:05:57;;;;;;;2.00;1.35;;;8.20;99.90;;;;;;4971047;28;20434;-46
2024/02/03 04:08:25;;;;;;;2.43;1.60;;;8.20;99.90;;;;;;4966884;28;20623;-47
2024/02/03 04:10:53;;;;;;;2.57;1.80;;;8.20;99.90;;;;;;4963436;28;20419;-45
2024/02/03 04:13:21;;;;;;;3.20;2.40;;;8.20;99.90;;;;;;4954017;28;20467;-45
2024/02/03 04:15:49;;;;;;;3.20;2.03;;;8.20;99.90;;;;;;4951034;28;20431;-45
2024/02/03 04:18:18;;;;;;;1.83;1.30;;;8.20;99.90;;;;;;4966945;28;20468;-47
2024/02/03 04:20:47;;;;;;;2.23;1.70;;;8.20;99.90;;;;;;4970981;28;20736;-47
2024/02/03 04:23:16;;;;;;;2.57;1.97;;;8.20;99.90;;;;;;4970911;28;20502;-47
2024/02/03 04:25:44;;;;;;;2.40;1.60;;;8.20;99.90;;;;;;4968617;28;20454;-46
2024/02/03 04:28:13;;;;;;;1.90;1.50;;;8.20;99.90;;;;;;4971176;28;20423;-46
2024/02/03 04:30:42;;;;;;;2.40;1.67;;;8.20;99.90;;;;;;4962748;28;20449;-50
2024/02/03 04:33:10;;;;;;;2.67;1.90;;;8.20;99.90;;;;;;4970056;28;20451;-48
2024/02/03 04:35:38;;;;;;;2.45;1.90;;;8.20;99.90;;;;;;4969866;28;20191;-48
2024/02/03 04:38:07;;;;;;;2.23;1.63;;;8.20;99.90;;;;;;4967323;28;20201;-48
2024/02/03 04:40:37;;;;;;;1.95;1.38;;;8.20;99.90;;;;;;4965069;28;20461;-48
2024/02/03 04:43:05;;;;;;;2.33;1.63;;;8.20;99.90;;;;;;4967985;28;20311;-45
2024/02/03 04:45:33;;;;;;;2.30;1.40;;;8.20;99.90;;;;;;4968201;28;20827;-45
2024/02/03 04:48:01;;;;;;;2.77;2.03;;;8.20;99.90;;;;;;4962061;28;20830;-46
2024/02/03 04:50:29;;;;;;;2.40;1.60;;;8.20;99.90;;;;;;4962489;28;20980;-45
2024/02/03 04:52:57;;;;;;;2.20;1.47;;;8.20;99.90;;;;;;4968110;28;20469;-45
2024/02/03 04:55:26;;;;;;;2.92;2.22;;;8.20;99.90;;;;;;4969499;28;20857;-44
2024/02/03 04:57:55;;;;;;;3.22;2.13;;;8.20;99.90;;;;;;4961781;28;20737;-45
2024/02/03 05:00:23;;;;;;;3.47;2.38;;;8.20;99.90;;;;;;4963553;28;20195;-45
2024/02/03 05:02:51;;;;;;;2.25;1.38;;;8.20;99.90;;;;;;4958859;28;20216;-45
2024/02/03 05:05:19;;;;;;;2.53;1.77;;;8.20;99.90;;;;;;4953723;28;20230;-44
2024/02/03 05:07:48;;;;;;;2.43;1.73;;;8.20;99.90;;;;;;4958530;28;20241;-46
2024/02/03 05:10:17;;;;;;;2.43;1.43;;;8.20;99.90;;;;;;4969432;28;20437;-45
2024/02/03 05:12:45;;;;;;;2.15;1.50;;;8.20;99.90;;;;;;4957301;28;20514;-45
2024/02/03 05:15:14;;;;;;;2.33;1.30;;;8.20;99.90;;;;;;4956089;28;20227;-45
2024/02/03 05:17:42;;;;;;;3.20;1.90;;;8.20;99.90;;;;;;4955571;28;20316;-45
2024/02/03 05:20:11;;;;;;;2.30;1.40;;;8.20;99.90;;;;;;4965268;28;20446;-45
2024/02/03 05:22:39;;;;;;;2.17;1.77;;;8.20;99.90;;;;;;4969297;28;20219;-45
2024/02/03 05:25:10;;;;;;;2.10;1.53;;;8.20;99.90;;;;;;4968486;28;20517;-46
2024/02/03 05:27:39;;;;;;;2.00;1.60;;;8.20;99.90;;;;;;4966066;28;20915;-45
2024/02/03 05:30:08;;;;;;;2.40;1.83;;;8.20;99.90;;;;;;4969938;28;20439;-45
2024/02/03 05:32:38;;;;;;;3.43;1.83;;;8.10;99.90;;;;;;4963667;28;21082;-46
2024/02/03 05:35:06;;;;;;;2.15;1.48;;;8.20;99.90;;;;;;4969693;28;20535;-46
2024/02/03 05:37:34;;;;;;;2.45;1.58;;;8.20;99.90;;;;;;4951912;28;20226;-45
2024/02/03 05:40:03;;;;;;;2.53;1.50;;;8.20;99.90;;;;;;4970215;28;20287;-46
2024/02/03 05:42:31;;;;;;;1.90;1.50;;;8.20;99.90;;;;;;4960704;28;20527;-45
2024/02/03 05:47:55;;;;;;;2.83;2.08;;;8.20;99.90;;;;;;5162209;23;20486;-47
2024/02/03 05:50:23;;;;;;;2.35;1.67;;;8.20;99.90;;;;;;5160672;23;20264;-45
2024/02/03 05:52:51;;;;;;;2.22;1.60;;;8.20;99.90;;;;;;4988453;28;20770;-45
2024/02/03 05:55:19;;;;;;;2.53;1.60;;;8.20;99.90;;;;;;4987149;28;20194;-45
2024/02/03 05:57:48;;;;;;;2.40;1.60;;;8.20;99.90;;;;;;4976276;28;20468;-45
2024/02/03 06:00:17;;;;;;;3.17;1.90;;;8.20;99.90;;;;;;4989454;28;20422;-45
2024/02/03 06:02:46;;;;;;;2.20;1.60;;;8.20;99.90;;;;;;4985502;28;20585;-45
2024/02/03 06:05:16;;;;;;;2.37;1.70;;;8.20;99.90;;;;;;4987980;28;20436;-45
2024/02/03 06:07:44;;;;;;;1.90;1.30;;;8.20;99.90;;;;;;4992764;28;20460;-46
2024/02/03 06:10:13;;;;;;;3.07;2.00;;;8.20;99.90;;;;;;4986101;28;20440;-45
2024/02/03 06:12:41;;;;;;;1.60;1.20;;;8.20;99.90;;;;;;4990823;28;20998;-45
2024/02/03 06:15:10;;;;;;;2.80;1.77;;;8.20;99.90;;;;;;4993311;28;20446;-45
2024/02/03 06:17:38;;;;;;;2.00;1.50;;;8.20;99.90;;;;;;4985077;28;20485;-45
2024/02/03 06:20:07;;;;;;;3.33;1.80;;;8.10;99.90;;;;;;4993061;28;21035;-44
2024/02/03 06:22:38;;;;;;;1.90;1.50;;;8.20;99.90;;;;;;4986161;28;20468;-46
2024/02/03 06:25:06;;;;;;;2.28;1.60;;;8.20;99.90;;;;;;4981656;28;20225;-45
2024/02/03 06:27:34;;;;;;;2.57;1.70;;;8.20;99.90;;;;;;4985617;28;20281;-46
2024/02/03 06:30:03;;;;;;;2.10;1.58;;;8.20;99.90;;;;;;4989928;28;20433;-44
2024/02/03 06:32:31;;;;;;;3.17;2.00;;;8.20;99.90;;;;;;4982962;28;20295;-45
2024/02/03 06:34:59;;;;;;;2.47;1.80;;;8.20;99.90;;;;;;4992000;28;20194;-44
2024/02/03 06:37:27;;;;;;;1.93;1.40;;;8.20;99.90;;;;;;4991263;28;20472;-45
2024/02/03 06:39:57;;;;;;;2.00;1.45;;;8.20;99.90;;;;;;4981997;28;20433;-45
2024/02/03 06:42:25;;;;;;;1.52;0.95;;;8.20;99.90;;;;;;4977886;28;20613;-44
2024/02/03 06:44:53;;;;;;;2.40;1.50;;;8.20;99.90;;;;;;4980348;28;20435;-45
2024/02/03 06:47:21;;;;;;;2.47;1.60;;;8.10;99.90;;;;;;4982855;28;20478;-44
2024/02/03 06:49:50;;;;;;;2.10;1.50;;;8.20;99.90;;;;;;4984681;28;20529;-45
2024/02/03 06:52:18;;;;;;;1.80;1.48;;;8.20;99.90;;;;;;4981660;28;20851;-46
2024/02/03 06:54:46;;;;;;;1.77;1.33;;;8.20;99.90;;;;;;4990467;28;20346;-45
2024/02/03 06:57:16;;;;;;;2.00;1.20;;;8.20;99.90;;;;;;4980060;28;20609;-45
2024/02/03 06:59:44;;;;;;;2.08;1.35;;;8.10;99.90;;;;;;4988750;28;20824;-45
2024/02/03 07:02:12;;;;;;;2.60;1.73;;;8.10;99.90;;;;;;4983370;28;20264;-46
2024/02/03 07:04:40;;;;;;;1.65;1.20;;;8.20;99.90;;;;;;4990440;28;20234;-46
2024/02/03 07:07:09;;;;;;;2.03;1.20;;;8.20;99.90;;;;;;4985474;28;20310;-45
2024/02/03 07:09:37;;;;;;;2.00;1.30;;;8.20;99.90;;;;;;4986735;28;20199;-46
2024/02/03 07:12:05;;;;;;;1.93;1.27;;;8.20;99.90;;;;;;4969575;28;20700;-46
2024/02/03 07:14:37;;;;;;;2.67;1.73;;;8.20;99.90;;;;;;4990568;28;20483;-46
2024/02/03 07:17:05;;;;;;;2.33;1.70;;;8.20;99.90;;;;;;4983315;28;20465;-45
2024/02/03 07:19:33;;;;;;;2.23;1.43;;;8.20;99.90;;;;;;4985855;28;20435;-45
2024/02/03 07:22:02;;;;;;;4.83;1.60;;;8.20;99.90;;;;;;4990009;28;20532;-46
2024/02/03 07:24:30;;;;;;;1.50;1.10;;;8.20;99.90;;;;;;4986035;28;20980;-46
2024/02/03 07:26:59;;;;;;;2.00;1.27;;;8.10;99.90;;;;;;4988479;28;20224;-45
2024/02/03 07:29:27;;;;;;;1.85;1.38;;;8.10;99.90;;;;;;4990051;28;20237;-45
2024/02/03 07:32:01;;;;;;;1.50;1.00;;;8.20;99.90;;;;;;4955695;28;20235;-46
2024/02/03 07:34:29;;;;;;;1.97;1.60;;;8.20;99.90;;;;;;4988660;28;20588;-45
2024/02/03 07:36:58;;;;;;;2.60;1.50;;;8.20;99.90;;;;;;4983084;28;20558;-45
2024/02/03 07:39:26;;;;;;;1.93;1.37;;;8.20;99.90;;;;;;4985248;28;20187;-46
2024/02/03 07:41:54;;;;;;;2.13;1.40;;;8.20;99.90;;;;;;4971850;28;20845;-46
2024/02/03 07:44:23;;;;;;;2.38;1.48;;;8.10;99.90;;;;;;4990383;28;20847;-45
2024/02/03 07:46:51;;;;;;;1.80;1.53;;;8.20;99.90;;;;;;4985596;28;20228;-45
2024/02/03 07:49:21;;;;;;;2.40;1.65;;;8.20;99.90;;;;;;4956792;28;20445;-45
2024/02/03 07:51:49;;;;;;;1.60;1.00;;;8.20;99.90;;;;;;4985786;28;20317;-46
2024/02/03 07:54:17;;;;;;;2.47;1.48;;;8.20;99.90;;;;;;4983631;28;20434;-45
2024/02/03 07:56:45;;;;;;;1.80;1.20;;;8.20;99.90;;;;;;4984089;28;20248;-44
2024/02/03 07:59:15;;;;;;;2.20;1.20;;;8.20;99.90;;;;;;4989852;28;20198;-45
2024/02/03 08:01:43;;;;;;;1.55;1.13;;;8.20;99.90;;;;;;4982822;28;20484;-45
2024/02/03 08:04:11;;;;;;;2.33;1.70;;;8.20;99.90;;;;;;4990297;28;20221;-45
2024/02/03 08:06:41;;;;;;;2.38;1.42;;;8.20;99.90;;;;;;4984531;28;20249;-45
2024/02/03 08:09:10;;;;;;;1.63;1.33;;;8.20;99.90;;;;;;4985320;28;20205;-45
2024/02/03 08:11:38;;;;;;;2.00;1.23;;;8.20;99.90;;;;;;4967391;28;20477;-45
2024/02/03 08:14:06;;;;;;;1.88;1.25;;;8.20;99.90;;;;;;4970014;28;20219;-46
2024/02/03 08:16:34;;;;;;;1.90;1.10;;;8.20;99.90;;;;;;4981053;28;20234;-45
2024/02/03 08:19:02;;;;;;;1.90;1.50;;;8.20;99.90;;;;;;4984356;28;20496;-45
2024/02/03 08:21:31;;;;;;;2.22;1.05;;;8.20;99.90;;;;;;4989569;28;20472;-45
2024/02/03 08:24:02;;;;;;;2.20;1.50;;;8.20;99.90;;;;;;4985805;28;22482;-45
2024/02/03 08:26:30;;;;;;;1.90;1.20;;;8.20;99.90;;;;;;4978919;28;21069;-45
2024/02/03 08:28:58;;;;;;;3.60;1.57;;;8.20;99.90;;;;;;4980935;28;20199;-46
2024/02/03 08:31:27;;;;;;;1.77;1.25;;;8.30;99.90;;;;;;4968153;28;20521;-46
2024/02/03 08:33:57;;;;;;;2.10;1.48;;;8.30;99.90;;;;;;4987385;28;20225;-47
2024/02/03 08:36:25;;;;;;;1.93;1.27;;;8.30;99.90;;;;;;4988307;28;20313;-50
2024/02/03 08:38:54;;;;;;;1.92;1.42;;;8.30;99.90;;;;;;4978225;28;20571;-44
2024/02/03 08:41:24;;;;;;;1.83;1.52;;;8.30;99.90;;;;;;4985714;28;20226;-44
2024/02/03 08:43:52;;;;;;;1.67;1.13;;;8.30;99.90;;;;;;4980197;28;20238;-46
2024/02/03 08:46:20;;;;;;;2.23;1.20;;;8.30;99.90;;;;;;4976746;28;20556;-45
2024/02/03 08:48:48;;;;;;;3.00;1.37;;;8.30;99.90;;;;;;4987698;28;20536;-44
2024/02/03 08:51:18;;;;;;;2.05;1.40;;;8.30;99.90;;;;;;4983861;28;20464;-45
2024/02/03 08:53:46;;;;;;;3.05;1.33;;;8.30;99.90;;;;;;4985567;28;20285;-46
2024/02/03 08:56:14;;;;;;;2.53;2.33;;;8.30;99.90;;;;;;4981815;28;20226;-45
2024/02/03 08:58:44;;;;;;;2.67;1.20;;;8.40;99.90;;;;;;4978505;28;20449;-45
2024/02/03 09:01:12;;;;;;;1.90;1.40;;;8.40;99.90;;;;;;4971185;28;20458;-48
2024/02/03 09:03:41;;;;;;;2.10;1.00;;;8.30;99.90;;;;;;4979577;28;20459;-46
2024/02/03 09:06:12;;;;;;;2.57;1.53;;;8.40;99.90;;;;;;4966091;28;20466;-46
2024/02/03 09:08:40;;;;;;;2.47;1.50;;;8.40;99.90;;;;;;4982537;28;20448;-45
2024/02/03 09:11:08;;;;;;;2.30;1.33;;;8.40;99.90;;;;;;4981928;28;20462;-46
2024/02/03 09:13:37;;;;;;;2.33;1.77;;;8.40;99.90;;;;;;4984959;28;20466;-46
2024/02/03 09:16:06;;;;;;;1.73;1.23;;;8.40;99.90;;;;;;4985975;28;20461;-45
2024/02/03 09:18:35;;;;;;;1.80;1.20;;;8.40;99.90;;;;;;4979363;28;20824;-45
2024/02/03 09:21:03;;;;;;;1.70;1.30;;;8.50;99.90;;;;;;4966027;28;21695;-47
2024/02/03 09:23:32;;;;;;;1.80;1.20;;;8.40;99.90;;;;;;4977668;28;20450;-45
2024/02/03 09:26:01;;;;;;;1.70;1.17;;;8.50;99.90;;;;;;4978124;28;21006;-46
2024/02/03 09:28:30;;;;;;;1.73;1.30;;;8.40;99.90;;;;;;4985749;28;20441;-46
2024/02/03 09:30:59;;;;;;;1.53;1.07;;;8.50;99.90;;;;;;4984732;28;20439;-45
2024/02/03 09:33:29;;;;;;;1.60;1.20;;;8.50;99.90;;;;;;4988988;28;20461;-45
2024/02/03 09:35:57;;;;;;;1.70;1.40;;;8.40;99.90;;;;;;4988725;28;20429;-45
2024/02/03 09:38:25;;;;;;;2.23;1.47;;;8.50;99.90;;;;;;4989229;28;20449;-47
2024/02/03 09:40:55;;;;;;;1.70;1.10;;;8.40;99.90;;;;;;4979768;28;20947;-47
2024/02/03 09:43:25;;;;;;;1.70;1.00;;;8.50;99.90;;;;;;4985296;28;20437;-46
2024/02/03 09:45:54;;;;;;;2.43;1.50;;;8.50;99.90;;;;;;4965426;28;20472;-45
2024/02/03 09:48:24;;;;;;;2.00;1.43;;;8.50;99.90;;;;;;4985259;28;20445;-45
2024/02/03 09:50:54;;;;;;;1.90;1.17;;;8.50;99.90;;;;;;4968351;28;20437;-45
2024/02/03 09:53:23;;;;;;;2.33;1.40;;;8.50;99.90;;;;;;4981783;28;20563;-48
2024/02/03 09:55:51;;;;;;;2.27;1.57;;;8.50;99.90;;;;;;4984864;28;20432;-48
2024/02/03 09:58:19;;;;;;;3.17;1.37;;;8.50;99.90;;;;;;4983823;28;20525;-48
2024/02/03 10:00:52;;;;;;;2.00;1.27;;;8.50;99.90;;;;;;4979304;28;20477;-47
2024/02/03 10:03:20;;;;;;;1.90;1.17;;;8.50;99.90;;;;;;4977711;28;20496;-46
2024/02/03 10:05:52;;;;;;;1.83;1.30;;;8.50;99.90;;;;;;4983835;28;20489;-46
2024/02/03 10:08:22;;;;;;;1.60;1.00;;;8.50;99.90;;;;;;4983145;28;20426;-46
2024/02/03 10:10:53;;;;;;;1.97;1.30;;;8.50;99.90;;;;;;4984062;28;20438;-46
2024/02/03 10:13:22;;;;;;;3.70;1.70;;;8.60;99.90;;;;;;4977199;28;20465;-45
2024/02/03 10:15:59;;;;;;;2.25;1.70;;;8.60;99.90;;;;;;4977543;28;20445;-46
2024/02/03 10:18:28;;;;;;;2.10;1.70;;;8.60;99.90;;;;;;4975069;28;20197;-45
2024/02/03 10:20:56;;;;;;;2.63;1.40;;;8.60;99.90;;;;;;4973231;28;20939;-47
2024/02/03 10:23:26;;;;;;;6.30;2.10;;;8.60;99.90;;;;;;4977611;28;20457;-47
2024/02/03 10:25:58;;;;;;;3.97;1.70;;;8.60;99.90;;;;;;4971522;28;20496;-47
2024/02/03 10:28:27;;;;;;;3.47;1.60;;;8.60;99.90;;;;;;4959708;28;20456;-47
2024/02/03 10:30:56;;;;;;;2.80;1.57;;;8.60;99.90;;;;;;4983424;28;20440;-47
2024/02/03 10:33:28;;;;;;;4.23;1.80;;;8.60;99.90;;;;;;4973207;28;20450;-49
2024/02/03 10:36:01;;;;;;;4.93;1.70;;;8.60;99.90;;;;;;4973898;28;20443;-48
2024/02/03 10:38:35;;;;;;;2.00;1.70;;;8.60;99.90;;;;;;4977884;28;20448;-45
2024/02/03 10:41:04;;;;;;;3.27;1.73;;;8.60;99.90;;;;;;4965154;28;21039;-46
2024/02/03 10:43:35;;;;;;;3.57;2.00;;;8.60;99.90;;;;;;4963291;28;21306;-47
2024/02/03 10:46:06;;;;;;;2.87;1.77;;;8.60;99.90;;;;;;4981256;28;20485;-47
2024/02/03 10:48:36;;;;;;;2.90;1.50;;;8.60;99.90;;;;;;4978556;28;20456;-48
2024/02/03 10:51:11;;;;;;;4.20;1.60;;;8.60;99.90;;;;;;4939580;28;1111362;-46
2024/02/03 10:53:47;;;;;;;2.23;1.50;;;8.60;99.90;;;;;;4978221;28;20300;-47
2024/02/03 10:56:17;;;;;;;4.60;1.87;;;8.60;99.90;;;;;;4975232;28;20477;-45
2024/02/03 10:58:46;;;;;;;2.83;1.60;;;8.60;99.90;;;;;;4967278;28;20480;-46
2024/02/03 11:01:17;;;;;;;2.30;1.70;;;8.60;99.90;;;;;;4983760;28;20534;-46
2024/02/03 11:03:48;;;;;;;2.20;1.60;;;8.60;99.90;;;;;;4982411;28;20458;-45
2024/02/03 11:06:25;;;;;;;2.30;1.70;;;8.60;99.90;;;;;;4987458;28;20967;-45
2024/02/03 11:09:09;;;;;;;2.40;1.53;;;8.60;99.90;;;;;;4984940;28;20449;-45
2024/02/03 11:11:39;;;;;;;2.00;1.30;;;8.60;99.90;;;;;;4988721;28;20975;-45
2024/02/03 11:14:12;;;;;;;2.20;1.70;;;8.60;99.90;;;;;;4966803;28;20465;-45
2024/02/03 11:16:40;;;;;;;2.20;1.17;;;8.70;99.90;;;;;;4976465;28;20558;-46
2024/02/03 11:19:12;;;;;;;2.00;1.50;;;8.70;99.90;;;;;;4978477;28;20426;-46
2024/02/03 11:21:45;;;;;;;2.00;1.53;;;8.70;99.90;;;;;;4978091;28;20984;-45
2024/02/03 11:24:14;;;;;;;2.57;1.83;;;8.60;99.90;;;;;;4981963;28;20463;-45
2024/02/03 11:26:43;;;;;;;2.50;1.70;;;8.60;99.90;;;;;;4976327;28;20466;-48
2024/02/03 11:29:12;;;;;;;1.80;1.30;;;8.70;99.90;;;;;;4974901;28;20431;-48
2024/02/03 11:31:41;;;;;;;2.40;1.67;;;8.70;99.90;;;;;;4982319;28;20528;-47
2024/02/03 11:34:13;;;;;;;2.30;1.50;;;8.70;99.90;;;;;;4976701;28;20600;-47
2024/02/03 11:36:41;;;;;;;2.20;1.37;;;8.60;99.90;;;;;;4974278;28;20502;-48
2024/02/03 11:39:10;;;;;;;1.90;1.40;;;8.70;99.90;;;;;;4984469;28;20520;-47
2024/02/03 11:41:40;;;;;;;3.93;1.33;;;8.70;99.90;;;;;;4975880;28;20903;-46
2024/02/03 11:44:08;;;;;;;1.83;1.27;;;8.60;99.90;;;;;;4990912;28;20466;-49
2024/02/03 11:46:36;;;;;;;1.80;1.50;;;8.60;99.90;;;;;;4976959;28;20565;-46
2024/02/03 11:49:04;;;;;;;3.10;1.60;;;8.70;99.90;;;;;;4990996;28;20519;-46
2024/02/03 11:51:34;;;;;;;2.40;1.90;;;8.70;99.90;;;;;;4983440;28;20521;-46
2024/02/03 11:54:06;;;;;;;1.77;1.40;;;8.70;99.90;;;;;;4981090;28;20489;-47
2024/02/03 11:56:34;;;;;;;2.20;1.40;;;8.70;99.90;;;;;;4982658;28;20482;-47
2024/02/03 11:59:08;;;;;;;1.90;1.40;;;8.70;99.90;;;;;;4985350;28;20430;-47
2024/02/03 12:01:40;;;;;;;2.17;1.47;;;8.70;99.90;;;;;;4965126;28;20461;-46
2024/02/03 12:04:08;;;;;;;1.90;1.20;;;8.70;99.90;;;;;;4973305;28;20472;-47
2024/02/03 12:06:37;;;;;;;2.17;1.70;;;8.70;99.90;;;;;;4982585;28;20475;-46
2024/02/03 12:09:05;;;;;;;2.53;1.87;;;8.70;99.90;;;;;;4979899;28;20450;-46
2024/02/03 12:11:33;;;;;;;3.17;1.67;;;8.70;99.90;;;;;;4987155;28;20461;-45
2024/02/03 12:14:04;;;;;;;2.10;1.30;;;8.70;99.90;;;;;;4980096;28;20453;-48
2024/02/03 12:16:33;;;;;;;2.27;1.50;;;8.60;99.90;;;;;;4980666;28;20863;-45
2024/02/03 12:19:03;;;;;;;1.50;1.10;;;8.60;99.90;;;;;;4964884;28;20963;-46
2024/02/03 12:21:32;;;;;;;2.23;1.60;;;8.60;99.90;;;;;;4987739;28;20615;-45
2024/02/03 12:24:00;;;;;;;2.33;1.40;;;8.60;99.90;;;;;;4977754;28;20461;-46
2024/02/03 12:26:29;;;;;;;2.80;1.80;;;8.60;99.90;;;;;;4979804;28;21020;-45
2024/02/03 12:28:57;;;;;;;2.20;1.57;;;8.60;99.90;;;;;;4978750;28;20446;-47
2024/02/03 12:31:26;;;;;;;2.87;1.73;;;8.60;99.90;;;;;;4973669;28;20469;-47
2024/02/03 12:33:55;;;;;;;2.30;1.63;;;8.60;99.90;;;;;;4977187;28;20454;-45
2024/02/03 12:36:24;;;;;;;1.70;1.50;;;8.50;99.90;;;;;;4975730;28;20459;-45
2024/02/03 12:38:53;;;;;;;2.87;1.90;;;8.50;99.90;;;;;;4975694;28;20433;-46
2024/02/03 12:41:22;;;;;;;2.30;2.00;;;8.50;99.90;;;;;;4973452;28;20546;-46
2024/02/03 12:43:50;;;;;;;2.67;1.83;;;8.50;99.90;;;;;;4979552;28;20475;-46
2024/02/03 12:46:19;;;;;;;2.30;1.80;;;8.50;99.90;;;;;;4978654;28;20991;-45
2024/02/03 12:48:50;;;;;;;2.50;1.63;;;8.50;99.90;;;;;;4986163;28;20495;-45
2024/02/03 12:51:20;;;;;;;2.00;1.33;;;8.50;99.90;;;;;;4985014;28;20259;-45
2024/02/03 12:53:48;;;;;;;2.00;1.37;;;8.50;99.90;;;;;;4986587;28;20221;-45
2024/02/03 12:56:18;;;;;;;1.70;1.30;;;8.50;99.90;;;;;;4973971;28;20458;-46
2024/02/03 12:58:48;;;;;;;2.00;1.50;;;8.50;99.90;;;;;;4976569;28;20434;-46
2024/02/03 13:01:16;;;;;;;2.30;1.50;;;8.50;99.90;;;;;;4979026;28;20469;-45
2024/02/03 13:03:44;;;;;;;2.70;1.30;;;8.50;99.90;;;;;;4982037;28;20454;-45
2024/02/03 13:06:14;;;;;;;2.90;2.30;;;8.50;99.90;;;;;;4978154;28;20483;-45
2024/02/03 13:08:44;;;;;;;1.63;1.40;;;8.50;99.90;;;;;;4987659;28;20225;-45
2024/02/03 13:11:12;;;;;;;2.13;1.40;;;8.50;99.90;;;;;;4963860;28;20458;-45
2024/02/03 13:13:45;;;;;;;2.10;1.40;;;8.50;99.90;;;;;;4980415;28;20463;-45
2024/02/03 13:16:15;;;;;;;2.90;1.30;;;8.50;99.90;;;;;;4980708;28;20489;-45